Skip to main content.
Our real time weather data display below is updated continuously via our 24/7 live data feed.
 TIME   TEMPERATURE   WINDSPEED   DIRECTION   HUMIDITY   BAROMETER   RAINFALL 
2:40 25.0°C (77.0°F) 5.6 kmh (3.5 mph) SSE 88% 1014.9hPa (29.97 inHg) 0.0mm (0.00 in.)
1:40 25.0°C (77.0 °F) 5.6 kmh (3.5 mph) S 83% 1014.9hPa (29.97 inHg) 0.0mm (0.00 in.)
0:40 25.0°C (77.0 °F) 1.9 kmh (1.2 mph) W 73% 1014.9hPa (29.97 inHg) 0.0mm (0.00 in.)
23:40 25.0°C (77.0 °F) 1.9 kmh (1.2 mph) WNW 83% 1015.9hPa (30.00 inHg) 0.0mm (0.00 in.)
22:40 26.0°C (78.8 °F) 1.9 kmh (1.2 mph) W 88% 1015.9hPa (30.00 inHg) 0.0mm (0.00 in.)
21:40 27.0°C (80.6 °F) 3.7 kmh (2.3 mph) NE 83% 1015.9hPa (30.00 inHg) 0.0mm (0.00 in.)
20:40 28.0°C (82.4 °F) 7.4 kmh (4.6 mph) NE 74% 1015.9hPa (30.00 inHg) 0.0mm (0.00 in.)
19:40 30.0°C (86.0 °F) 9.3 kmh (5.8 mph) NE 55% 1014.9hPa (29.97 inHg) 0.0mm (0.00 in.)
18:40 31.0°C (87.8 °F) 9.3 kmh (5.8 mph) ENE 45% 1014.9hPa (29.97 inHg) 0.0mm (0.00 in.)
17:40 32.0°C (89.6 °F) 13.0 kmh (8.1 mph) WSW 33% 1015.9hPa (30.00 inHg) 0.0mm (0.00 in.)
16:40 32.0°C (89.6 °F) 18.5 kmh (11.5 mph) SW 38% 1015.9hPa (30.00 inHg) 0.0mm (0.00 in.)
15:40 32.0°C (89.6 °F) 14.8 kmh (9.2 mph) WSW 40% 1015.9hPa (30.00 inHg) 0.0mm (0.00 in.)
14:40 33.0°C (91.4 °F) 9.3 kmh (5.8 mph) SSW 41% 1016.9hPa (30.03 inHg) 0.0mm (0.00 in.)
13:40 33.0°C (91.4 °F) 5.6 kmh (3.5 mph) NE 31% 1016.9hPa (30.03 inHg) 0.0mm (0.00 in.)
12:40 32.0°C (89.6 °F) 9.3 kmh (5.8 mph) ENE 27% 1016.9hPa (30.03 inHg) 0.0mm (0.00 in.)
11:40 33.0°C (91.4 °F) 11.1 kmh (6.9 mph) ENE 24% 1016.9hPa (30.03 inHg) 0.0mm (0.00 in.)
10:40 31.0°C (87.8 °F) 9.3 kmh (5.8 mph) NNE 35% 1016.9hPa (30.03 inHg) 0.0mm (0.00 in.)
9:40 29.0°C (84.2 °F) 11.1 kmh (6.9 mph) NNW 54% 1016.9hPa (30.03 inHg) 0.0mm (0.00 in.)
8:40 27.0°C (80.6 °F) 11.1 kmh (6.9 mph) N 65% 1016.9hPa (30.03 inHg) 0.0mm (0.00 in.)
7:40 25.0°C (77.0 °F) 11.1 kmh (6.9 mph) N 69% 1016.9hPa (30.03 inHg) 0.0mm (0.00 in.)
6:40 23.0°C (73.4 °F) 9.3 kmh (5.8 mph) NNW 73% 1015.9hPa (30.00 inHg) 0.0mm (0.00 in.)
5:40 24.0°C (75.2 °F) 9.3 kmh (5.8 mph) NNW 69% 1015.9hPa (30.00 inHg) 0.0mm (0.00 in.)
4:40 24.0°C (75.2 °F) 11.1 kmh (6.9 mph) NNW 60% 1016.9hPa (30.03 inHg) 0.0mm (0.00 in.)
3:40 24.0°C (75.2 °F) 7.4 kmh (4.6 mph) NNW 46% 1016.9hPa (30.03 inHg) 0.0mm (0.00 in.)